sensor_id;sensor_type;location;lat;lon;timestamp;pressure;altitude;pressure_sealevel;temperature;humidity
52927;BME280;40783;49.710;8.842;2023-03-22T00:00:34;98851.00;;;8.47;100.00
52927;BME280;40783;49.710;8.842;2023-03-22T00:03:00;98847.22;;;8.50;100.00
52927;BME280;40783;49.710;8.842;2023-03-22T00:05:25;98854.78;;;8.54;100.00
52927;BME280;40783;49.710;8.842;2023-03-22T00:07:54;98844.25;;;8.53;100.00
52927;BME280;40783;49.710;8.842;2023-03-22T00:10:22;98851.25;;;8.54;100.00
52927;BME280;40783;49.710;8.842;2023-03-22T00:12:47;98844.78;;;8.56;100.00
52927;BME280;40783;49.710;8.842;2023-03-22T00:15:12;98843.34;;;8.62;100.00
52927;BME280;40783;49.710;8.842;2023-03-22T00:17:39;98839.69;;;8.63;100.00
52927;BME280;40783;49.710;8.842;2023-03-22T00:20:06;98840.53;;;8.64;100.00
52927;BME280;40783;49.710;8.842;2023-03-22T00:22:31;98829.00;;;8.63;100.00
52927;BME280;40783;49.710;8.842;2023-03-22T00:24:57;98832.38;;;8.65;100.00
52927;BME280;40783;49.710;8.842;2023-03-22T00:27:22;98830.69;;;8.64;100.00
52927;BME280;40783;49.710;8.842;2023-03-22T00:29:50;98829.88;;;8.64;100.00
52927;BME280;40783;49.710;8.842;2023-03-22T00:32:15;98833.72;;;8.69;100.00
52927;BME280;40783;49.710;8.842;2023-03-22T00:34:40;98831.75;;;8.71;100.00
52927;BME280;40783;49.710;8.842;2023-03-22T00:37:07;98827.78;;;8.75;100.00
52927;BME280;40783;49.710;8.842;2023-03-22T00:39:33;98823.13;;;8.78;100.00
52927;BME280;40783;49.710;8.842;2023-03-22T00:41:58;98820.84;;;8.83;100.00
52927;BME280;40783;49.710;8.842;2023-03-22T00:44:23;98822.34;;;8.85;100.00
52927;BME280;40783;49.710;8.842;2023-03-22T00:46:48;98820.69;;;8.84;100.00
52927;BME280;40783;49.710;8.842;2023-03-22T00:49:14;98823.22;;;8.86;100.00
52927;BME280;40783;49.710;8.842;2023-03-22T00:51:39;98820.00;;;8.82;100.00
52927;BME280;40783;49.710;8.842;2023-03-22T00:54:04;98811.19;;;8.82;100.00
52927;BME280;40783;49.710;8.842;2023-03-22T00:56:29;98816.50;;;8.82;100.00
52927;BME280;40783;49.710;8.842;2023-03-22T00:58:57;98806.66;;;8.82;100.00
52927;BME280;40783;49.710;8.842;2023-03-22T01:01:23;98811.19;;;8.82;100.00
52927;BME280;40783;49.710;8.842;2023-03-22T01:03:50;98805.66;;;8.83;100.00
52927;BME280;40783;49.710;8.842;2023-03-22T01:06:18;98803.84;;;8.84;100.00
52927;BME280;40783;49.710;8.842;2023-03-22T01:08:43;98796.53;;;8.86;100.00
52927;BME280;40783;49.710;8.842;2023-03-22T01:11:10;98796.53;;;8.86;100.00
52927;BME280;40783;49.710;8.842;2023-03-22T01:13:36;98785.03;;;8.85;100.00
52927;BME280;40783;49.710;8.842;2023-03-22T01:16:05;98794.56;;;8.88;100.00
52927;BME280;40783;49.710;8.842;2023-03-22T01:18:31;98790.91;;;8.89;100.00
52927;BME280;40783;49.710;8.842;2023-03-22T01:20:57;98794.25;;;8.91;100.00
52927;BME280;40783;49.710;8.842;2023-03-22T01:23:25;98788.91;;;8.91;100.00
52927;BME280;40783;49.710;8.842;2023-03-22T01:25:50;98785.88;;;8.86;100.00
52927;BME280;40783;49.710;8.842;2023-03-22T01:28:18;98781.16;;;8.80;100.00
52927;BME280;40783;49.710;8.842;2023-03-22T01:30:43;98782.28;;;8.77;100.00
52927;BME280;40783;49.710;8.842;2023-03-22T01:33:08;98776.16;;;8.76;100.00
52927;BME280;40783;49.710;8.842;2023-03-22T01:35:34;98779.13;;;8.73;100.00
52927;BME280;40783;49.710;8.842;2023-03-22T01:38:02;98781.41;;;8.68;100.00
52927;BME280;40783;49.710;8.842;2023-03-22T01:40:27;98783.00;;;8.61;100.00
52927;BME280;40783;49.710;8.842;2023-03-22T01:42:53;98779.34;;;8.62;100.00
52927;BME280;40783;49.710;8.842;2023-03-22T01:47:47;98763.69;;;8.59;100.00
52927;BME280;40783;49.710;8.842;2023-03-22T01:50:14;98752.34;;;8.57;100.00
52927;BME280;40783;49.710;8.842;2023-03-22T01:52:43;98763.38;;;8.62;100.00
52927;BME280;40783;49.710;8.842;2023-03-22T01:55:08;98764.22;;;8.63;100.00
52927;BME280;40783;49.710;8.842;2023-03-22T01:57:35;98758.72;;;8.64;100.00
52927;BME280;40783;49.710;8.842;2023-03-22T02:00:07;98747.38;;;8.62;100.00
52927;BME280;40783;49.710;8.842;2023-03-22T02:02:42;98742.03;;;8.62;100.00
52927;BME280;40783;49.710;8.842;2023-03-22T02:05:08;98746.00;;;8.58;100.00
52927;BME280;40783;49.710;8.842;2023-03-22T02:07:36;98751.97;;;8.52;100.00
52927;BME280;40783;49.710;8.842;2023-03-22T02:10:03;98748.31;;;8.53;100.00
52927;BME280;40783;49.710;8.842;2023-03-22T02:20:31;98751.88;;;8.61;100.00
52927;BME280;40783;49.710;8.842;2023-03-22T02:28:32;98762.75;;;8.68;100.00
52927;BME280;40783;49.710;8.842;2023-03-22T02:31:01;98761.13;;;8.75;100.00
52927;BME280;40783;49.710;8.842;2023-03-22T02:37:03;98757.47;;;8.76;100.00
52927;BME280;40783;49.710;8.842;2023-03-22T02:44:24;98764.75;;;8.93;100.00
52927;BME280;40783;49.710;8.842;2023-03-22T02:51:49;98764.28;;;8.97;100.00
52927;BME280;40783;49.710;8.842;2023-03-22T02:54:27;98761.31;;;9.00;100.00
52927;BME280;40783;49.710;8.842;2023-03-22T02:57:02;98759.28;;;9.02;100.00
52927;BME280;40783;49.710;8.842;2023-03-22T02:59:30;98747.63;;;9.03;100.00
52927;BME280;40783;49.710;8.842;2023-03-22T03:02:00;98742.34;;;9.12;100.00
52927;BME280;40783;49.710;8.842;2023-03-22T03:04:30;98738.91;;;9.19;100.00
52927;BME280;40783;49.710;8.842;2023-03-22T03:06:59;98738.41;;;9.24;100.00
52927;BME280;40783;49.710;8.842;2023-03-22T03:09:25;98743.25;;;9.29;100.00
52927;BME280;40783;49.710;8.842;2023-03-22T03:11:52;98724.44;;;9.30;100.00
52927;BME280;40783;49.710;8.842;2023-03-22T03:14:28;98730.75;;;9.29;100.00
52927;BME280;40783;49.710;8.842;2023-03-22T03:19:36;98740.13;;;9.33;100.00
52927;BME280;40783;49.710;8.842;2023-03-22T03:24:48;98735.59;;;9.34;100.00
52927;BME280;40783;49.710;8.842;2023-03-22T03:27:21;98739.25;;;9.33;100.00
52927;BME280;40783;49.710;8.842;2023-03-22T03:29:50;98720.59;;;9.33;100.00
52927;BME280;40783;49.710;8.842;2023-03-22T03:34:48;98730.75;;;9.29;100.00
52927;BME280;40783;49.710;8.842;2023-03-22T03:37:18;98742.44;;;9.28;100.00
52927;BME280;40783;49.710;8.842;2023-03-22T03:39:50;98742.44;;;9.28;100.00
52927;BME280;40783;49.710;8.842;2023-03-22T03:42:16;98733.75;;;9.26;100.00
52927;BME280;40783;49.710;8.842;2023-03-22T03:44:42;98730.91;;;9.28;100.00
52927;BME280;40783;49.710;8.842;2023-03-22T03:47:10;98732.06;;;9.25;100.00
52927;BME280;40783;49.710;8.842;2023-03-22T03:49:36;98730.41;;;9.24;100.00
52927;BME280;40783;49.710;8.842;2023-03-22T03:52:02;98738.03;;;9.19;100.00
52927;BME280;40783;49.710;8.842;2023-03-22T03:54:28;98726.91;;;9.24;100.00
52927;BME280;40783;49.710;8.842;2023-03-22T03:56:53;98721.53;;;9.15;100.00
52927;BME280;40783;49.710;8.842;2023-03-22T03:59:20;98718.38;;;9.20;100.00
52927;BME280;40783;49.710;8.842;2023-03-22T04:01:48;98717.91;;;9.25;100.00
52927;BME280;40783;49.710;8.842;2023-03-22T04:04:20;98715.75;;;9.28;100.00
52927;BME280;40783;49.710;8.842;2023-03-22T04:06:59;98703.72;;;9.24;100.00
52927;BME280;40783;49.710;8.842;2023-03-22T04:09:26;98704.03;;;9.21;100.00
52927;BME280;40783;49.710;8.842;2023-03-22T04:11:52;98705.72;;;9.22;100.00
52927;BME280;40783;49.710;8.842;2023-03-22T04:14:17;98698.03;;;9.19;100.00
52927;BME280;40783;49.710;8.842;2023-03-22T04:16:45;98696.22;;;9.19;100.00
52927;BME280;40783;49.710;8.842;2023-03-22T04:19:10;98700.19;;;9.15;100.00
52927;BME280;40783;49.710;8.842;2023-03-22T04:21:38;98689.00;;;9.12;100.00
52927;BME280;40783;49.710;8.842;2023-03-22T04:24:03;98687.94;;;9.04;100.00
52927;BME280;40783;49.710;8.842;2023-03-22T04:26:31;98680.94;;;9.03;100.00
52927;BME280;40783;49.710;8.842;2023-03-22T04:28:57;98681.25;;;8.92;100.00
52927;BME280;40783;49.710;8.842;2023-03-22T04:31:22;98678.91;;;8.89;100.00
52927;BME280;40783;49.710;8.842;2023-03-22T04:33:48;98679.91;;;8.88;100.00
52927;BME280;40783;49.710;8.842;2023-03-22T04:36:19;98668.56;;;8.86;100.00
52927;BME280;40783;49.710;8.842;2023-03-22T04:38:44;98679.22;;;8.86;100.00
52927;BME280;40783;49.710;8.842;2023-03-22T04:41:10;98678.84;;;8.81;100.00
52927;BME280;40783;49.710;8.842;2023-03-22T04:43:35;98674.50;;;8.80;100.00
52927;BME280;40783;49.710;8.842;2023-03-22T04:46:04;98669.31;;;8.78;100.00
52927;BME280;40783;49.710;8.842;2023-03-22T04:48:29;98666.16;;;8.74;100.00
52927;BME280;40783;49.710;8.842;2023-03-22T04:50:55;98675.66;;;8.77;100.00
52927;BME280;40783;49.710;8.842;2023-03-22T04:53:21;98669.63;;;8.75;100.00
52927;BME280;40783;49.710;8.842;2023-03-22T04:55:51;98671.84;;;8.80;100.00
52927;BME280;40783;49.710;8.842;2023-03-22T04:58:16;98663.91;;;8.88;100.00
52927;BME280;40783;49.710;8.842;2023-03-22T05:00:46;98672.41;;;8.91;100.00
52927;BME280;40783;49.710;8.842;2023-03-22T05:03:11;98681.63;;;8.97;100.00
52927;BME280;40783;49.710;8.842;2023-03-22T05:05:48;98679.94;;;9.04;100.00
52927;BME280;40783;49.710;8.842;2023-03-22T05:08:14;98678.63;;;9.09;100.00
52927;BME280;40783;49.710;8.842;2023-03-22T05:10:39;98676.97;;;9.08;100.00
52927;BME280;40783;49.710;8.842;2023-03-22T05:13:05;98672.66;;;9.15;100.00
52927;BME280;40783;49.710;8.842;2023-03-22T05:15:30;98672.66;;;9.15;100.00
52927;BME280;40783;49.710;8.842;2023-03-22T05:17:56;98675.50;;;9.13;100.00
52927;BME280;40783;49.710;8.842;2023-03-22T05:20:22;98666.97;;;9.10;100.00
52927;BME280;40783;49.710;8.842;2023-03-22T05:22:49;98677.31;;;9.13;100.00
52927;BME280;40783;49.710;8.842;2023-03-22T05:25:14;98682.66;;;9.13;100.00
52927;BME280;40783;49.710;8.842;2023-03-22T05:27:40;98688.66;;;9.15;100.00
52927;BME280;40783;49.710;8.842;2023-03-22T05:30:05;98692.34;;;9.14;100.00
52927;BME280;40783;49.710;8.842;2023-03-22T05:32:31;98684.28;;;9.05;100.00
52927;BME280;40783;49.710;8.842;2023-03-22T05:34:56;98678.13;;;9.05;100.00
52927;BME280;40783;49.710;8.842;2023-03-22T05:37:21;98691.84;;;9.10;100.00
52927;BME280;40783;49.710;8.842;2023-03-22T05:39:49;98687.63;;;9.08;100.00
52927;BME280;40783;49.710;8.842;2023-03-22T05:42:17;98684.66;;;9.11;100.00
52927;BME280;40783;49.710;8.842;2023-03-22T05:44:44;98684.81;;;9.09;100.00
52927;BME280;40783;49.710;8.842;2023-03-22T05:47:09;98689.63;;;9.05;100.00
52927;BME280;40783;49.710;8.842;2023-03-22T05:49:35;98693.28;;;9.04;100.00
52927;BME280;40783;49.710;8.842;2023-03-22T05:52:03;98696.63;;;8.98;100.00
52927;BME280;40783;49.710;8.842;2023-03-22T05:54:29;98692.78;;;9.01;100.00
52927;BME280;40783;49.710;8.842;2023-03-22T05:56:55;98690.16;;;9.09;100.00
52927;BME280;40783;49.710;8.842;2023-03-22T05:59:20;98694.03;;;9.23;100.00
52927;BME280;40783;49.710;8.842;2023-03-22T06:01:45;98690.09;;;9.35;100.00
52927;BME280;40783;49.710;8.842;2023-03-22T06:04:13;98687.44;;;9.44;100.00
52927;BME280;40783;49.710;8.842;2023-03-22T06:06:38;98689.78;;;9.39;100.00
52927;BME280;40783;49.710;8.842;2023-03-22T06:09:03;98689.28;;;9.43;100.00
52927;BME280;40783;49.710;8.842;2023-03-22T06:11:28;98691.94;;;9.43;100.00
52927;BME280;40783;49.710;8.842;2023-03-22T06:13:57;98686.94;;;9.40;100.00
52927;BME280;40783;49.710;8.842;2023-03-22T06:16:23;98702.28;;;9.46;100.00
52927;BME280;40783;49.710;8.842;2023-03-22T06:18:48;98708.16;;;9.50;100.00
52927;BME280;40783;49.710;8.842;2023-03-22T06:21:13;98703.31;;;9.54;100.00
52927;BME280;40783;49.710;8.842;2023-03-22T06:23:41;98699.97;;;9.52;100.00
52927;BME280;40783;49.710;8.842;2023-03-22T06:26:07;98691.63;;;9.46;100.00
52927;BME280;40783;49.710;8.842;2023-03-22T06:28:35;98691.63;;;9.46;100.00
52927;BME280;40783;49.710;8.842;2023-03-22T06:31:04;98702.13;;;9.40;100.00
52927;BME280;40783;49.710;8.842;2023-03-22T06:33:30;98698.44;;;9.41;100.00
52927;BME280;40783;49.710;8.842;2023-03-22T06:35:55;98689.78;;;9.39;100.00
52927;BME280;40783;49.710;8.842;2023-03-22T06:38:20;98698.13;;;9.44;100.00
52927;BME280;40783;49.710;8.842;2023-03-22T06:40:45;98698.13;;;9.44;100.00
52927;BME280;40783;49.710;8.842;2023-03-22T06:43:10;98690.44;;;9.41;100.00
52927;BME280;40783;49.710;8.842;2023-03-22T06:45:35;98689.41;;;9.33;100.00
52927;BME280;40783;49.710;8.842;2023-03-22T06:48:01;98686.94;;;9.40;100.00
52927;BME280;40783;49.710;8.842;2023-03-22T06:50:28;98697.81;;;9.47;100.00
52927;BME280;40783;49.710;8.842;2023-03-22T06:52:54;98696.81;;;9.48;100.00
52927;BME280;40783;49.710;8.842;2023-03-22T06:55:19;98698.78;;;9.54;100.00
52927;BME280;40783;49.710;8.842;2023-03-22T06:57:44;98708.50;;;9.63;100.00
52927;BME280;40783;49.710;8.842;2023-03-22T07:00:10;98705.16;;;9.61;100.00
52927;BME280;40783;49.710;8.842;2023-03-22T07:02:37;98708.81;;;9.60;100.00
52927;BME280;40783;49.710;8.842;2023-03-22T07:05:02;98708.00;;;9.60;100.00
52927;BME280;40783;49.710;8.842;2023-03-22T07:07:27;98710.69;;;9.60;100.00
52927;BME280;40783;49.710;8.842;2023-03-22T07:09:53;98703.16;;;9.63;100.00
52927;BME280;40783;49.710;8.842;2023-03-22T07:12:18;98706.88;;;9.79;100.00
52927;BME280;40783;49.710;8.842;2023-03-22T07:14:43;98705.56;;;9.91;100.00
52927;BME280;40783;49.710;8.842;2023-03-22T07:17:08;98706.56;;;10.32;100.00
52927;BME280;40783;49.710;8.842;2023-03-22T07:19:36;98710.09;;;10.74;100.00
52927;BME280;40783;49.710;8.842;2023-03-22T07:22:01;98705.19;;;10.94;100.00
52927;BME280;40783;49.710;8.842;2023-03-22T07:24:26;98711.88;;;10.81;100.00
52927;BME280;40783;49.710;8.842;2023-03-22T07:26:54;98711.50;;;11.01;100.00
52927;BME280;40783;49.710;8.842;2023-03-22T07:29:19;98710.53;;;10.94;100.00
52927;BME280;40783;49.710;8.842;2023-03-22T07:31:45;98709.19;;;10.90;100.00
52927;BME280;40783;49.710;8.842;2023-03-22T07:34:13;98707.50;;;11.05;100.00
52927;BME280;40783;49.710;8.842;2023-03-22T07:36:38;98708.47;;;11.12;100.00
52927;BME280;40783;49.710;8.842;2023-03-22T07:39:03;98717.50;;;11.11;100.00
52927;BME280;40783;49.710;8.842;2023-03-22T07:41:29;98715.13;;;11.17;100.00
52927;BME280;40783;49.710;8.842;2023-03-22T07:43:55;98713.09;;;11.19;100.00
52927;BME280;40783;49.710;8.842;2023-03-22T07:46:22;98716.59;;;11.27;100.00
52927;BME280;40783;49.710;8.842;2023-03-22T07:48:48;98716.75;;;11.34;100.00
52927;BME280;40783;49.710;8.842;2023-03-22T07:51:13;98716.03;;;11.40;100.00
52927;BME280;40783;49.710;8.842;2023-03-22T07:53:41;98708.19;;;11.39;100.00
52927;BME280;40783;49.710;8.842;2023-03-22T07:56:06;98715.00;;;11.50;100.00
52927;BME280;40783;49.710;8.842;2023-03-22T07:58:34;98708.59;;;11.59;100.00
52927;BME280;40783;49.710;8.842;2023-03-22T08:01:04;98713.97;;;11.59;100.00
52927;BME280;40783;49.710;8.842;2023-03-22T08:03:29;98713.25;;;11.65;100.00
52927;BME280;40783;49.710;8.842;2023-03-22T08:05:54;98709.69;;;11.73;100.00
52927;BME280;40783;49.710;8.842;2023-03-22T08:08:23;98711.13;;;11.84;100.00
52927;BME280;40783;49.710;8.842;2023-03-22T08:10:48;98713.50;;;11.79;100.00
52927;BME280;40783;49.710;8.842;2023-03-22T08:13:17;98715.81;;;11.82;100.00
52927;BME280;40783;49.710;8.842;2023-03-22T08:15:42;98718.38;;;12.07;100.00
52927;BME280;40783;49.710;8.842;2023-03-22T08:18:10;98724.03;;;12.12;100.00
52927;BME280;40783;49.710;8.842;2023-03-22T08:20:37;98710.81;;;12.10;100.00
52927;BME280;40783;49.710;8.842;2023-03-22T08:23:02;98716.66;;;12.14;100.00
52927;BME280;40783;49.710;8.842;2023-03-22T08:25:28;98707.59;;;12.15;100.00
52927;BME280;40783;49.710;8.842;2023-03-22T08:27:54;98700.22;;;12.17;100.00
52927;BME280;40783;49.710;8.842;2023-03-22T08:30:19;98709.13;;;12.32;100.00
52927;BME280;40783;49.710;8.842;2023-03-22T08:32:47;98708.50;;;12.45;100.00
52927;BME280;40783;49.710;8.842;2023-03-22T08:35:12;98703.53;;;12.57;100.00
52927;BME280;40783;49.710;8.842;2023-03-22T08:37:37;98703.03;;;12.39;100.00
52927;BME280;40783;49.710;8.842;2023-03-22T08:40:06;98704.34;;;12.43;100.00
52927;BME280;40783;49.710;8.842;2023-03-22T08:42:33;98699.94;;;12.27;100.00
52927;BME280;40783;49.710;8.842;2023-03-22T08:45:03;98708.53;;;12.22;100.00
52927;BME280;40783;49.710;8.842;2023-03-22T08:47:28;98697.44;;;12.25;100.00
52927;BME280;40783;49.710;8.842;2023-03-22T08:49:53;98703.03;;;12.39;100.00
52927;BME280;40783;49.710;8.842;2023-03-22T08:52:19;98699.69;;;12.37;100.00
52927;BME280;40783;49.710;8.842;2023-03-22T08:54:44;98689.56;;;12.47;100.00
52927;BME280;40783;49.710;8.842;2023-03-22T08:57:10;98684.94;;;12.56;100.00
52927;BME280;40783;49.710;8.842;2023-03-22T08:59:35;98692.69;;;12.51;100.00
52927;BME280;40783;49.710;8.842;2023-03-22T09:02:00;98693.66;;;12.73;100.00
52927;BME280;40783;49.710;8.842;2023-03-22T09:04:25;98684.56;;;12.74;100.00
52927;BME280;40783;49.710;8.842;2023-03-22T09:06:53;98678.69;;;12.94;100.00
52927;BME280;40783;49.710;8.842;2023-03-22T09:09:18;98670.91;;;12.99;98.45
52927;BME280;40783;49.710;8.842;2023-03-22T09:11:46;98662.94;;;13.20;99.24
52927;BME280;40783;49.710;8.842;2023-03-22T09:14:14;98672.00;;;13.19;97.28
52927;BME280;40783;49.710;8.842;2023-03-22T09:16:39;98671.16;;;13.19;96.37
52927;BME280;40783;49.710;8.842;2023-03-22T09:19:04;98672.06;;;13.26;96.49
52927;BME280;40783;49.710;8.842;2023-03-22T09:21:30;98672.28;;;12.95;94.68
52927;BME280;40783;49.710;8.842;2023-03-22T09:23:55;98668.69;;;12.87;97.47
52927;BME280;40783;49.710;8.842;2023-03-22T09:26:21;98667.19;;;13.00;95.70
52927;BME280;40783;49.710;8.842;2023-03-22T09:28:47;98672.94;;;12.97;94.77
52927;BME280;40783;49.710;8.842;2023-03-22T09:31:15;98663.69;;;13.14;94.80
52927;BME280;40783;49.710;8.842;2023-03-22T09:33:42;98662.31;;;13.40;96.87
52927;BME280;40783;49.710;8.842;2023-03-22T09:36:08;98649.84;;;13.32;91.19
52927;BME280;40783;49.710;8.842;2023-03-22T09:38:37;98651.59;;;13.40;92.95
52927;BME280;40783;49.710;8.842;2023-03-22T09:41:06;98646.59;;;13.37;93.33
52927;BME280;40783;49.710;8.842;2023-03-22T09:43:36;98652.59;;;13.39;92.85
52927;BME280;40783;49.710;8.842;2023-03-22T09:46:02;98653.81;;;13.52;94.55
52927;BME280;40783;49.710;8.842;2023-03-22T09:48:30;98644.19;;;13.42;93.59
52927;BME280;40783;49.710;8.842;2023-03-22T09:50:56;98643.81;;;13.45;91.83
52927;BME280;40783;49.710;8.842;2023-03-22T09:53:24;98646.41;;;13.54;92.45
52927;BME280;40783;49.710;8.842;2023-03-22T09:58:32;98652.16;;;13.50;90.46
52927;BME280;40783;49.710;8.842;2023-03-22T10:01:10;98629.00;;;13.49;91.07
52927;BME280;40783;49.710;8.842;2023-03-22T10:03:48;98635.66;;;13.54;90.80
52927;BME280;40783;49.710;8.842;2023-03-22T10:06:20;98633.13;;;13.67;92.42
52927;BME280;40783;49.710;8.842;2023-03-22T10:08:52;98640.13;;;13.90;92.45
52927;BME280;40783;49.710;8.842;2023-03-22T10:13:59;98628.09;;;13.86;89.54
52927;BME280;40783;49.710;8.842;2023-03-22T10:16:27;98613.38;;;14.03;88.45
52927;BME280;40783;49.710;8.842;2023-03-22T10:18:55;98613.69;;;14.15;89.38
52927;BME280;40783;49.710;8.842;2023-03-22T10:21:25;98616.75;;;14.12;85.88
52927;BME280;40783;49.710;8.842;2023-03-22T10:26:19;98618.81;;;14.10;85.23
52927;BME280;40783;49.710;8.842;2023-03-22T10:28:51;98615.09;;;14.11;84.79
52927;BME280;40783;49.710;8.842;2023-03-22T10:31:19;98613.50;;;14.17;82.88
52927;BME280;40783;49.710;8.842;2023-03-22T10:33:53;98614.78;;;14.21;83.25
52927;BME280;40783;49.710;8.842;2023-03-22T10:36:21;98613.50;;;14.17;81.66
52927;BME280;40783;49.710;8.842;2023-03-22T10:38:47;98624.34;;;14.02;81.00
52927;BME280;40783;49.710;8.842;2023-03-22T10:41:15;98626.56;;;13.98;81.76
52927;BME280;40783;49.710;8.842;2023-03-22T10:43:46;98626.19;;;14.01;81.86
52927;BME280;40783;49.710;8.842;2023-03-22T10:46:17;98624.13;;;14.03;81.88
52927;BME280;40783;49.710;8.842;2023-03-22T10:48:44;98618.91;;;14.23;81.11
52927;BME280;40783;49.710;8.842;2023-03-22T10:51:18;98621.34;;;14.18;83.21
52927;BME280;40783;49.710;8.842;2023-03-22T10:53:47;98630.78;;;14.07;81.10
52927;BME280;40783;49.710;8.842;2023-03-22T10:56:17;98623.63;;;13.93;80.93
52927;BME280;40783;49.710;8.842;2023-03-22T10:58:45;98626.81;;;13.82;82.19
52927;BME280;40783;49.710;8.842;2023-03-22T11:01:14;98623.38;;;13.88;82.83
52927;BME280;40783;49.710;8.842;2023-03-22T11:03:42;98630.66;;;13.94;82.01
52927;BME280;40783;49.710;8.842;2023-03-22T11:06:11;98617.44;;;13.92;83.84
52927;BME280;40783;49.710;8.842;2023-03-22T11:08:41;98627.47;;;13.84;83.07
52927;BME280;40783;49.710;8.842;2023-03-22T11:11:24;98623.13;;;13.83;82.65
52927;BME280;40783;49.710;8.842;2023-03-22T11:16:24;98609.03;;;13.80;82.81
52927;BME280;40783;49.710;8.842;2023-03-22T11:18:50;98607.44;;;13.86;84.74
52927;BME280;40783;49.710;8.842;2023-03-22T11:21:16;98605.03;;;13.91;83.29
52927;BME280;40783;49.710;8.842;2023-03-22T11:23:53;98608.97;;;13.95;82.07
52927;BME280;40783;49.710;8.842;2023-03-22T11:26:30;98603.50;;;14.10;84.92
52927;BME280;40783;49.710;8.842;2023-03-22T11:29:00;98606.84;;;14.13;83.87
52927;BME280;40783;49.710;8.842;2023-03-22T11:31:26;98599.56;;;14.06;82.84
52927;BME280;40783;49.710;8.842;2023-03-22T11:34:14;98599.84;;;14.18;82.90
52927;BME280;40783;49.710;8.842;2023-03-22T11:36:42;98596.66;;;14.36;80.40
52927;BME280;40783;49.710;8.842;2023-03-22T11:39:15;98583.13;;;14.58;82.51
52927;BME280;40783;49.710;8.842;2023-03-22T11:41:40;98588.75;;;14.63;81.85
52927;BME280;40783;49.710;8.842;2023-03-22T11:44:10;98584.41;;;14.62;81.13
52927;BME280;40783;49.710;8.842;2023-03-22T11:46:36;98584.13;;;14.79;79.41
52927;BME280;40783;49.710;8.842;2023-03-22T11:49:04;98582.06;;;14.81;82.04
52927;BME280;40783;49.710;8.842;2023-03-22T11:51:31;98570.28;;;14.89;79.69
52927;BME280;40783;49.710;8.842;2023-03-22T11:54:16;98572.53;;;14.85;80.07
52927;BME280;40783;49.710;8.842;2023-03-22T11:56:45;98570.28;;;14.89;80.49
52927;BME280;40783;49.710;8.842;2023-03-22T11:59:24;98573.78;;;14.89;77.94
52927;BME280;40783;49.710;8.842;2023-03-22T12:01:56;98560.78;;;14.99;78.25
52927;BME280;40783;49.710;8.842;2023-03-22T12:04:25;98561.41;;;15.02;77.06
52927;BME280;40783;49.710;8.842;2023-03-22T12:06:54;98553.56;;;15.07;77.50
52927;BME280;40783;49.710;8.842;2023-03-22T12:09:22;98559.81;;;15.07;76.86
52927;BME280;40783;49.710;8.842;2023-03-22T12:11:50;98546.53;;;15.06;77.68
52927;BME280;40783;49.710;8.842;2023-03-22T12:22:10;98537.84;;;15.17;74.66
52927;BME280;40783;49.710;8.842;2023-03-22T12:24:36;98534.78;;;15.34;76.50
52927;BME280;40783;49.710;8.842;2023-03-22T12:29:44;98523.63;;;15.64;76.15
52927;BME280;40783;49.710;8.842;2023-03-22T12:32:12;98535.03;;;15.79;76.00
52927;BME280;40783;49.710;8.842;2023-03-22T12:34:42;98530.50;;;15.86;74.13
52927;BME280;40783;49.710;8.842;2023-03-22T12:37:12;98520.13;;;15.90;73.26
52927;BME280;40783;49.710;8.842;2023-03-22T12:39:42;98508.94;;;15.86;71.13
52927;BME280;40783;49.710;8.842;2023-03-22T12:42:34;98511.41;;;15.81;70.60
52927;BME280;40783;49.710;8.842;2023-03-22T12:44:57;98522.53;;;15.38;71.30
52927;BME280;40783;49.710;8.842;2023-03-22T12:47:31;98515.94;;;15.34;71.21
52927;BME280;40783;49.710;8.842;2023-03-22T12:50:03;98514.28;;;15.46;71.82
52927;BME280;40783;49.710;8.842;2023-03-22T12:54:55;98515.13;;;15.53;71.89
52927;BME280;40783;49.710;8.842;2023-03-22T12:57:23;98506.00;;;15.68;74.18
52927;BME280;40783;49.710;8.842;2023-03-22T12:59:49;98497.72;;;15.76;71.46
52927;BME280;40783;49.710;8.842;2023-03-22T13:02:16;98490.47;;;15.70;70.93
52927;BME280;40783;49.710;8.842;2023-03-22T13:04:53;98492.31;;;15.76;72.12
52927;BME280;40783;49.710;8.842;2023-03-22T13:07:36;98488.59;;;15.77;69.11
52927;BME280;40783;49.710;8.842;2023-03-22T13:15:33;98482.78;;;15.94;69.47
52927;BME280;40783;49.710;8.842;2023-03-22T13:17:59;98475.31;;;15.82;70.24
52927;BME280;40783;49.710;8.842;2023-03-22T13:20:27;98472.84;;;15.87;69.66
52927;BME280;40783;49.710;8.842;2023-03-22T13:28:20;98461.22;;;15.80;70.53
52927;BME280;40783;49.710;8.842;2023-03-22T13:33:13;98455.81;;;15.80;69.07
52927;BME280;40783;49.710;8.842;2023-03-22T13:38:24;98442.72;;;16.11;69.59
52927;BME280;40783;49.710;8.842;2023-03-22T13:51:07;98436.75;;;16.54;64.34
52927;BME280;40783;49.710;8.842;2023-03-22T13:53:34;98432.16;;;16.55;64.16
52927;BME280;40783;49.710;8.842;2023-03-22T13:56:03;98431.97;;;16.50;62.04
52927;BME280;40783;49.710;8.842;2023-03-22T14:00:57;98437.38;;;16.50;58.50
52927;BME280;40783;49.710;8.842;2023-03-22T14:03:25;98427.81;;;16.54;59.57
52927;BME280;40783;49.710;8.842;2023-03-22T14:06:00;98422.41;;;16.60;62.39
52927;BME280;40783;49.710;8.842;2023-03-22T14:08:28;98421.13;;;16.63;62.33
52927;BME280;40783;49.710;8.842;2023-03-22T14:10:55;98414.63;;;16.71;61.29
52927;BME280;40783;49.710;8.842;2023-03-22T14:15:54;98411.38;;;16.62;56.19
52927;BME280;40783;49.710;8.842;2023-03-22T14:18:28;98404.75;;;16.58;57.66
52927;BME280;40783;49.710;8.842;2023-03-22T14:20:56;98408.03;;;16.67;54.68
52927;BME280;40783;49.710;8.842;2023-03-22T14:23:29;98405.41;;;16.53;54.46
52927;BME280;40783;49.710;8.842;2023-03-22T14:25:57;98404.13;;;16.56;54.25
52927;BME280;40783;49.710;8.842;2023-03-22T14:28:32;98403.69;;;16.59;53.20
52927;BME280;40783;49.710;8.842;2023-03-22T14:30:58;98408.50;;;16.57;53.19